Time;durP1;ratioP1;P1;durP2;ratioP2;P2;SDS_P1;SDS_P2;PMS_P1;PMS_P2;Temp;Humidity;BMP_temperature;BMP_pressure;BME280_temperature;BME280_humidity;BME280_pressure;Samples;Min_cycle;Max_cycle;Signal;HPM_P1;HPM_P2
2022/02/27 00:02:27;;;;;;;4.82;1.60;;;5.60;97.10;;;;;;5030782;28;20053;-61
2022/02/27 00:05:31;;;;;;;5.95;1.52;;;5.60;97.50;;;;;;5031637;28;20042;-60
2022/02/27 00:08:36;;;;;;;5.68;2.10;;;5.60;97.70;;;;;;5031271;28;20045;-61
2022/02/27 00:11:40;;;;;;;2.63;1.38;;;5.60;97.30;;;;;;5030670;28;20484;-61
2022/02/27 00:14:45;;;;;;;6.38;2.03;;;5.50;97.90;;;;;;5031362;28;20041;-61
2022/02/27 00:17:49;;;;;;;8.93;2.00;;;5.50;97.50;;;;;;5031420;28;20045;-61
2022/02/27 00:20:54;;;;;;;5.57;1.35;;;5.50;97.80;;;;;;5030872;28;20038;-60
2022/02/27 00:23:58;;;;;;;4.57;1.35;;;5.50;97.70;;;;;;5031419;28;20041;-61
2022/02/27 00:27:02;;;;;;;3.25;1.60;;;5.50;97.70;;;;;;5031079;28;20480;-61
2022/02/27 00:30:08;;;;;;;6.05;2.97;;;5.50;96.90;;;;;;5030263;28;20034;-60
2022/02/27 00:33:13;;;;;;;4.15;1.90;;;5.50;98.30;;;;;;5030954;28;20041;-61
2022/02/27 00:36:18;;;;;;;3.78;1.50;;;5.50;97.60;;;;;;5030325;28;20033;-61
2022/02/27 00:39:22;;;;;;;4.97;1.60;;;5.50;97.10;;;;;;5031438;28;20045;-60
2022/02/27 00:42:26;;;;;;;7.07;1.95;;;5.60;97.00;;;;;;5030785;28;20041;-61
2022/02/27 00:45:30;;;;;;;4.75;1.58;;;5.50;97.20;;;;;;5030591;28;20037;-60
2022/02/27 00:48:34;;;;;;;4.30;1.70;;;5.50;97.30;;;;;;5031203;28;20045;-60
2022/02/27 00:51:40;;;;;;;4.13;1.55;;;5.50;97.20;;;;;;5030038;28;20041;-61
2022/02/27 00:54:45;;;;;;;3.45;1.58;;;5.40;97.50;;;;;;5030942;28;20041;-61
2022/02/27 00:57:49;;;;;;;4.78;1.50;;;5.40;97.20;;;;;;5030544;28;20373;-61
2022/02/27 01:00:53;;;;;;;6.10;1.83;;;5.40;97.30;;;;;;5029098;28;20037;-61
2022/02/27 01:03:57;;;;;;;5.10;1.95;;;5.40;97.00;;;;;;5030611;28;20037;-60
2022/02/27 01:07:01;;;;;;;2.38;1.55;;;5.40;97.10;;;;;;5029936;28;20033;-60
2022/02/27 01:10:06;;;;;;;5.32;2.20;;;5.30;97.30;;;;;;5030525;28;20287;-60
2022/02/27 01:13:10;;;;;;;4.47;1.75;;;5.30;97.20;;;;;;5030050;28;20045;-60
2022/02/27 01:16:17;;;;;;;5.82;1.90;;;5.20;97.40;;;;;;5030072;28;20029;-60
2022/02/27 01:19:21;;;;;;;5.07;2.47;;;5.20;97.50;;;;;;5030253;28;20045;-60
2022/02/27 01:22:26;;;;;;;11.02;4.13;;;5.20;97.50;;;;;;5028537;28;20037;-60
2022/02/27 01:25:30;;;;;;;5.25;2.00;;;5.20;97.60;;;;;;5030209;28;20052;-60
2022/02/27 01:28:34;;;;;;;7.45;2.10;;;5.10;97.50;;;;;;5030309;28;20396;-60
2022/02/27 01:31:38;;;;;;;3.65;2.28;;;5.10;97.50;;;;;;5029621;28;20046;-61
2022/02/27 01:34:43;;;;;;;4.32;1.60;;;5.20;97.50;;;;;;5029193;28;20041;-61
2022/02/27 01:37:47;;;;;;;9.70;2.00;;;5.20;97.50;;;;;;5029194;28;20045;-60
2022/02/27 01:40:51;;;;;;;11.13;2.95;;;5.20;97.10;;;;;;5029814;28;20034;-60
2022/02/27 01:43:55;;;;;;;2.55;1.48;;;5.20;96.90;;;;;;5029506;28;20041;-61
2022/02/27 01:47:07;;;;;;;4.25;2.30;;;5.20;97.00;;;;;;5030273;28;20480;-61
2022/02/27 01:50:11;;;;;;;8.15;1.85;;;5.20;96.40;;;;;;5029598;28;20034;-60
2022/02/27 01:53:15;;;;;;;7.53;2.20;;;5.20;96.60;;;;;;5029755;28;20041;-60
2022/02/27 01:56:21;;;;;;;6.05;2.13;;;5.20;97.00;;;;;;5040092;28;20033;-61
2022/02/27 01:59:25;;;;;;;5.10;2.05;;;5.10;97.20;;;;;;5029546;28;20046;-61
2022/02/27 02:02:29;;;;;;;4.28;1.75;;;5.00;97.10;;;;;;5030423;28;20369;-61
2022/02/27 02:05:33;;;;;;;6.07;2.65;;;5.00;97.40;;;;;;5030151;28;20037;-60
2022/02/27 02:08:39;;;;;;;8.60;2.28;;;5.00;97.40;;;;;;5029958;28;20045;-60
2022/02/27 02:11:43;;;;;;;6.35;2.72;;;5.00;97.40;;;;;;5029553;28;20501;-60
2022/02/27 02:14:48;;;;;;;7.47;2.33;;;5.10;97.50;;;;;;5044111;28;20049;-61
2022/02/27 02:17:54;;;;;;;5.38;2.55;;;5.10;97.40;;;;;;5032800;28;20041;-60
2022/02/27 02:20:59;;;;;;;6.43;2.10;;;5.30;97.50;;;;;;5032706;28;20045;-61
2022/02/27 02:24:03;;;;;;;6.43;2.15;;;5.20;97.80;;;;;;5032388;28;20037;-60
2022/02/27 02:27:08;;;;;;;3.85;1.90;;;5.00;97.90;;;;;;5033078;28;20033;-60
2022/02/27 02:30:12;;;;;;;7.35;2.10;;;5.00;98.00;;;;;;5032667;28;20338;-60
2022/02/27 02:33:17;;;;;;;4.55;1.90;;;5.00;98.20;;;;;;5032619;28;20042;-61
2022/02/27 02:36:21;;;;;;;4.55;2.17;;;5.00;98.10;;;;;;5032732;28;20041;-61
2022/02/27 02:39:27;;;;;;;5.50;2.10;;;5.00;98.00;;;;;;5033231;28;20041;-61
2022/02/27 02:42:37;;;;;;;5.30;2.55;;;5.10;97.90;;;;;;5032420;28;20504;-61
2022/02/27 02:45:41;;;;;;;10.13;2.28;;;5.10;98.00;;;;;;5044266;28;20045;-60
2022/02/27 02:48:45;;;;;;;6.38;1.95;;;5.00;98.10;;;;;;5033636;28;20057;-61
2022/02/27 02:52:05;;;;;;;7.20;2.10;;;5.00;98.80;;;;;;5031650;28;20366;-60
2022/02/27 02:55:12;;;;;;;5.53;1.92;;;5.30;98.50;;;;;;5031915;28;20046;-60
2022/02/27 02:58:16;;;;;;;7.05;2.83;;;5.10;98.70;;;;;;5032770;28;20041;-60
2022/02/27 03:01:22;;;;;;;2.70;1.60;;;5.00;99.20;;;;;;5032477;28;20033;-60
2022/02/27 03:04:26;;;;;;;6.70;2.58;;;5.00;99.20;;;;;;5032914;28;20030;-60
2022/02/27 03:07:30;;;;;;;5.72;2.25;;;4.90;99.90;;;;;;5032722;28;20037;-60
2022/02/27 03:10:34;;;;;;;4.90;2.38;;;4.90;99.70;;;;;;5032149;28;20046;-61
2022/02/27 03:13:38;;;;;;;9.40;2.92;;;4.90;99.70;;;;;;5032161;28;20045;-61
2022/02/27 03:16:42;;;;;;;5.60;2.40;;;4.90;99.90;;;;;;5032262;28;20046;-61
2022/02/27 03:19:46;;;;;;;4.78;1.88;;;4.80;99.90;;;;;;5032621;28;20037;-61
2022/02/27 03:22:50;;;;;;;5.97;2.50;;;4.80;99.90;;;;;;5031783;28;20049;-60
2022/02/27 03:25:54;;;;;;;6.65;1.80;;;4.90;99.90;;;;;;5031304;28;20045;-61
2022/02/27 03:28:59;;;;;;;4.88;2.05;;;4.90;99.90;;;;;;5032215;28;20045;-60
2022/02/27 03:32:03;;;;;;;6.65;1.98;;;4.90;99.90;;;;;;5031614;28;20610;-61
2022/02/27 03:35:07;;;;;;;6.57;3.05;;;4.90;99.90;;;;;;5032060;28;20385;-60
2022/02/27 03:38:12;;;;;;;8.48;2.25;;;4.80;99.90;;;;;;5032307;28;20221;-60
2022/02/27 03:41:15;;;;;;;6.78;2.67;;;4.80;99.90;;;;;;5031280;28;20041;-61
2022/02/27 03:44:20;;;;;;;7.15;2.25;;;4.80;99.90;;;;;;5031889;28;20484;-60
2022/02/27 03:47:24;;;;;;;4.45;2.40;;;4.80;99.90;;;;;;5031878;28;20042;-61
2022/02/27 03:50:29;;;;;;;5.32;2.15;;;4.80;99.90;;;;;;5031920;28;20042;-60
2022/02/27 03:53:33;;;;;;;5.63;2.10;;;4.80;99.90;;;;;;5031731;28;20037;-60
2022/02/27 03:56:37;;;;;;;3.60;1.83;;;4.80;99.90;;;;;;5031072;28;20484;-60
2022/02/27 03:59:41;;;;;;;6.70;2.80;;;4.80;99.90;;;;;;5031636;28;20038;-60
2022/02/27 04:02:46;;;;;;;9.23;2.55;;;4.70;99.90;;;;;;5030689;28;20034;-61
2022/02/27 04:05:50;;;;;;;5.72;2.75;;;4.70;99.90;;;;;;5032053;28;20041;-60
2022/02/27 04:08:55;;;;;;;6.93;2.65;;;4.80;99.90;;;;;;5031631;28;20041;-60
2022/02/27 04:11:59;;;;;;;5.00;2.35;;;4.80;99.90;;;;;;5031000;28;20038;-61
2022/02/27 04:15:05;;;;;;;6.63;2.30;;;4.80;99.90;;;;;;5030814;28;20037;-60
2022/02/27 04:18:09;;;;;;;5.30;2.60;;;4.90;99.90;;;;;;5031395;28;20481;-60
2022/02/27 04:21:13;;;;;;;8.25;2.33;;;4.80;99.90;;;;;;5030923;28;20033;-61
2022/02/27 04:24:17;;;;;;;6.93;2.28;;;4.80;99.90;;;;;;5031109;28;20037;-60
2022/02/27 04:27:21;;;;;;;6.57;2.45;;;4.80;99.90;;;;;;5031593;28;20041;-60
2022/02/27 04:30:25;;;;;;;4.88;2.50;;;4.80;99.90;;;;;;5030671;28;20037;-60
2022/02/27 04:33:29;;;;;;;8.98;2.45;;;4.90;99.90;;;;;;5030879;28;20075;-60
2022/02/27 04:36:33;;;;;;;9.60;2.63;;;4.90;99.90;;;;;;5030466;28;20330;-59
2022/02/27 04:39:38;;;;;;;7.50;2.65;;;4.90;99.90;;;;;;5030941;28;20060;-59
2022/02/27 04:42:41;;;;;;;9.30;2.80;;;4.90;99.90;;;;;;5030546;28;20041;-60
2022/02/27 04:45:45;;;;;;;9.43;3.03;;;4.90;99.90;;;;;;5031039;28;20045;-60
2022/02/27 04:48:49;;;;;;;10.10;2.53;;;4.90;99.90;;;;;;5030978;28;20038;-60
2022/02/27 04:51:54;;;;;;;10.48;2.47;;;5.00;99.90;;;;;;5030548;28;20278;-60
2022/02/27 04:54:58;;;;;;;9.93;2.38;;;5.00;99.90;;;;;;5030470;28;20064;-60
2022/02/27 04:58:02;;;;;;;4.97;2.58;;;4.90;99.90;;;;;;5030763;28;20283;-62
2022/02/27 05:01:07;;;;;;;19.23;4.90;;;4.80;99.90;;;;;;5030910;28;20045;-60
2022/02/27 05:04:11;;;;;;;11.20;2.55;;;4.90;99.90;;;;;;5031198;28;20052;-60
2022/02/27 05:07:15;;;;;;;4.40;2.03;;;4.90;99.90;;;;;;5030593;28;20048;-60
2022/02/27 05:10:19;;;;;;;4.78;2.20;;;4.90;99.90;;;;;;5030638;28;20049;-61
2022/02/27 05:13:25;;;;;;;4.60;2.20;;;4.90;99.90;;;;;;5030939;28;20381;-60
2022/02/27 05:16:29;;;;;;;7.18;2.53;;;4.90;99.90;;;;;;5030420;28;20041;-60
2022/02/27 05:19:33;;;;;;;5.35;2.35;;;5.00;99.90;;;;;;5030885;28;20464;-61
2022/02/27 05:22:42;;;;;;;5.97;2.60;;;4.90;99.90;;;;;;5030057;28;20037;-60
2022/02/27 05:25:46;;;;;;;7.95;2.13;;;4.90;99.90;;;;;;5030462;28;20033;-60
2022/02/27 05:28:50;;;;;;;8.95;2.80;;;4.80;99.90;;;;;;5030279;28;20042;-60
2022/02/27 05:31:54;;;;;;;5.85;2.40;;;4.90;99.90;;;;;;5029462;28;20030;-61
2022/02/27 05:34:58;;;;;;;8.02;2.53;;;4.90;99.90;;;;;;5030303;28;20045;-60
2022/02/27 05:38:03;;;;;;;9.25;2.63;;;4.80;99.90;;;;;;5030077;28;20037;-60
2022/02/27 05:41:06;;;;;;;6.72;2.17;;;4.80;99.90;;;;;;5029917;28;20037;-60
2022/02/27 05:44:10;;;;;;;7.80;2.58;;;4.80;99.90;;;;;;5030372;28;20042;-61
2022/02/27 05:47:14;;;;;;;7.63;2.05;;;4.70;99.90;;;;;;5030115;28;20045;-60
2022/02/27 05:50:18;;;;;;;5.20;2.20;;;4.80;99.90;;;;;;5034020;28;20057;-60
2022/02/27 05:53:22;;;;;;;5.55;2.47;;;4.70;99.90;;;;;;5034338;28;20045;-60
2022/02/27 05:56:27;;;;;;;7.47;2.60;;;4.70;99.90;;;;;;5033403;28;20480;-60
2022/02/27 05:59:30;;;;;;;6.82;2.58;;;4.70;99.90;;;;;;5033766;28;20045;-61
2022/02/27 06:02:34;;;;;;;7.63;2.50;;;4.70;99.90;;;;;;5032375;28;20030;-61
2022/02/27 06:05:38;;;;;;;8.20;2.63;;;4.80;99.90;;;;;;5033618;28;20041;-61
2022/02/27 06:08:42;;;;;;;5.10;2.03;;;4.80;99.90;;;;;;5033750;28;20038;-60
2022/02/27 06:11:46;;;;;;;6.53;2.30;;;4.80;99.90;;;;;;5033248;28;20034;-60
2022/02/27 06:14:50;;;;;;;5.13;2.40;;;4.80;99.90;;;;;;5033282;28;20037;-61
2022/02/27 06:17:54;;;;;;;6.45;2.13;;;4.80;99.90;;;;;;5033120;28;20029;-61
2022/02/27 06:20:58;;;;;;;5.57;1.95;;;4.90;99.90;;;;;;5032966;28;20045;-60
2022/02/27 06:24:03;;;;;;;7.07;2.00;;;4.90;99.90;;;;;;5033144;28;20042;-61
2022/02/27 06:27:07;;;;;;;6.10;2.92;;;5.00;99.90;;;;;;5033683;28;20041;-60
2022/02/27 06:30:19;;;;;;;4.20;2.88;;;5.00;99.90;;;;;;5033612;28;20049;-61
2022/02/27 06:33:23;;;;;;;5.88;2.85;;;5.00;99.90;;;;;;5033746;28;20045;-61
2022/02/27 06:36:27;;;;;;;5.25;2.50;;;5.10;99.90;;;;;;5033071;28;20049;-60
2022/02/27 06:39:31;;;;;;;5.25;2.22;;;5.30;99.90;;;;;;5033916;28;20045;-59
2022/02/27 06:42:37;;;;;;;7.70;2.35;;;5.30;99.90;;;;;;5032696;28;20049;-61
2022/02/27 06:45:41;;;;;;;4.68;2.13;;;5.50;99.90;;;;;;5032231;28;20041;-60
2022/02/27 06:48:44;;;;;;;3.80;2.10;;;5.70;99.90;;;;;;5033096;28;20045;-61
2022/02/27 06:51:48;;;;;;;4.88;2.20;;;5.90;99.90;;;;;;5032232;28;20033;-61
2022/02/27 06:54:53;;;;;;;5.43;2.65;;;6.20;99.90;;;;;;5032796;28;20037;-61
2022/02/27 06:57:57;;;;;;;8.82;2.63;;;6.50;99.90;;;;;;5032478;28;20487;-61
2022/02/27 07:01:01;;;;;;;11.02;2.45;;;6.70;99.70;;;;;;5032151;28;20037;-61
2022/02/27 07:04:05;;;;;;;9.02;2.80;;;6.80;99.80;;;;;;5032603;28;20032;-61
2022/02/27 07:07:09;;;;;;;6.55;2.28;;;7.10;99.20;;;;;;5032839;28;20045;-61
2022/02/27 07:10:13;;;;;;;6.63;2.10;;;7.30;98.80;;;;;;5032297;28;20037;-61
2022/02/27 07:13:17;;;;;;;6.10;2.00;;;7.70;98.10;;;;;;5032655;28;20045;-61
2022/02/27 07:16:24;;;;;;;4.90;2.13;;;7.80;97.90;;;;;;5032113;28;20041;-61
2022/02/27 07:19:27;;;;;;;4.40;2.03;;;8.00;97.40;;;;;;5032491;28;20041;-60
2022/02/27 07:22:36;;;;;;;4.68;2.38;;;9.20;96.40;;;;;;5031886;28;20041;-60
2022/02/27 07:25:40;;;;;;;3.67;2.10;;;9.20;96.80;;;;;;5031451;28;20037;-61
2022/02/27 07:28:44;;;;;;;8.70;2.47;;;9.70;95.90;;;;;;5032299;28;20469;-61
2022/02/27 07:31:48;;;;;;;6.07;2.25;;;9.90;95.70;;;;;;5031329;28;20041;-61
2022/02/27 07:34:52;;;;;;;5.47;2.45;;;10.30;95.10;;;;;;5031942;28;20037;-62
2022/02/27 07:37:56;;;;;;;5.93;2.20;;;10.70;94.30;;;;;;5030848;28;20400;-61
2022/02/27 07:41:00;;;;;;;7.65;2.50;;;11.70;93.10;;;;;;5031589;28;20040;-61
2022/02/27 07:44:04;;;;;;;4.55;2.20;;;12.10;93.00;;;;;;5031804;28;20385;-61
2022/02/27 07:47:09;;;;;;;6.68;2.63;;;11.80;92.70;;;;;;5031957;28;20052;-61
2022/02/27 07:50:13;;;;;;;4.43;2.00;;;11.70;92.40;;;;;;5031589;28;20523;-61
2022/02/27 07:53:18;;;;;;;8.27;2.63;;;11.60;92.90;;;;;;5031588;28;20054;-61
2022/02/27 07:56:22;;;;;;;6.97;2.45;;;10.90;93.30;;;;;;5031300;28;20052;-61
2022/02/27 07:59:26;;;;;;;10.68;2.58;;;10.50;93.70;;;;;;5031495;28;20061;-61
2022/02/27 08:02:31;;;;;;;14.45;2.80;;;10.00;94.10;;;;;;5031505;28;20392;-61
2022/02/27 08:05:35;;;;;;;8.00;2.92;;;9.70;95.00;;;;;;5031668;28;20044;-61
2022/02/27 08:08:39;;;;;;;5.90;3.10;;;9.10;95.40;;;;;;5031598;28;20045;-60
2022/02/27 08:11:43;;;;;;;15.07;2.80;;;8.40;95.80;;;;;;5030651;28;20049;-59
2022/02/27 08:14:47;;;;;;;5.95;2.67;;;7.80;96.50;;;;;;5030443;28;20499;-60
2022/02/27 08:17:53;;;;;;;6.93;2.92;;;7.50;96.80;;;;;;5030884;28;20373;-61
2022/02/27 08:20:58;;;;;;;9.05;3.05;;;7.50;98.20;;;;;;5030751;28;20041;-60
2022/02/27 08:24:02;;;;;;;6.38;3.10;;;7.50;98.40;;;;;;5030927;28;20033;-60
2022/02/27 08:27:06;;;;;;;7.05;2.97;;;7.40;98.80;;;;;;5031165;28;20045;-60
2022/02/27 08:30:11;;;;;;;11.18;3.70;;;7.20;99.00;;;;;;5030710;28;20037;-60
2022/02/27 08:33:15;;;;;;;7.10;3.15;;;7.00;99.30;;;;;;5031375;28;20526;-60
2022/02/27 08:36:19;;;;;;;6.50;2.83;;;6.90;99.50;;;;;;5030766;28;20045;-60
2022/02/27 08:39:23;;;;;;;4.20;2.47;;;6.90;99.90;;;;;;5030637;28;20029;-61
2022/02/27 08:42:28;;;;;;;6.95;3.47;;;6.80;99.90;;;;;;5030542;28;20041;-60
2022/02/27 08:45:33;;;;;;;8.38;3.00;;;5.10;99.20;;;;;;5030679;28;20041;-60
2022/02/27 08:48:37;;;;;;;7.85;3.97;;;6.80;99.90;;;;;;5030668;28;20037;-60
2022/02/27 08:51:45;;;;;;;11.00;4.47;;;6.90;99.90;;;;;;5029987;28;20045;-60
2022/02/27 08:54:49;;;;;;;8.30;3.28;;;7.00;99.90;;;;;;5031142;28;20044;-60
2022/02/27 08:57:53;;;;;;;10.13;3.35;;;6.60;99.90;;;;;;5030062;28;20038;-60
2022/02/27 09:00:57;;;;;;;7.13;3.28;;;6.50;99.90;;;;;;5030240;28;20400;-60
2022/02/27 09:04:02;;;;;;;9.68;3.30;;;6.40;99.90;;;;;;5030600;28;20022;-60
2022/02/27 09:07:06;;;;;;;5.97;2.70;;;6.30;99.90;;;;;;5030375;28;20041;-60
2022/02/27 09:10:14;;;;;;;12.07;3.03;;;6.20;99.90;;;;;;5030325;28;20480;-61
2022/02/27 09:13:18;;;;;;;4.43;2.80;;;6.30;99.90;;;;;;5030578;28;20041;-60
2022/02/27 09:16:22;;;;;;;8.20;3.53;;;6.30;99.90;;;;;;5029956;28;20045;-60
2022/02/27 09:19:26;;;;;;;9.80;3.72;;;6.30;99.90;;;;;;5030358;28;20045;-60
2022/02/27 09:22:30;;;;;;;7.60;4.45;;;6.40;99.90;;;;;;5029149;28;20042;-60
2022/02/27 09:25:34;;;;;;;9.75;3.33;;;6.40;99.90;;;;;;5029656;28;20037;-61
2022/02/27 09:28:38;;;;;;;7.68;3.47;;;6.30;99.90;;;;;;5030281;28;20037;-61
2022/02/27 09:31:42;;;;;;;13.60;4.57;;;6.30;99.90;;;;;;5030260;28;20187;-60
2022/02/27 09:34:47;;;;;;;11.60;3.75;;;6.20;99.90;;;;;;5030131;28;20045;-60
2022/02/27 09:37:51;;;;;;;8.25;3.55;;;6.40;99.90;;;;;;5030281;28;20041;-61
2022/02/27 09:40:58;;;;;;;8.00;3.13;;;6.30;99.90;;;;;;5041103;28;20045;-60
2022/02/27 09:44:04;;;;;;;7.50;4.03;;;6.50;99.90;;;;;;5029614;28;20037;-59
2022/02/27 09:47:13;;;;;;;8.98;3.55;;;5.80;99.90;;;;;;5029991;28;20046;-61
2022/02/27 09:50:19;;;;;;;8.02;3.78;;;6.70;99.90;;;;;;5029845;28;20041;-60
2022/02/27 09:53:24;;;;;;;8.55;3.80;;;6.60;99.90;;;;;;5030311;28;20029;-61
2022/02/27 09:56:28;;;;;;;9.05;3.90;;;6.80;99.90;;;;;;5029983;28;20038;-60
2022/02/27 09:59:32;;;;;;;9.95;3.50;;;6.70;99.90;;;;;;5029565;28;20034;-61
2022/02/27 10:03:08;;;;;;;8.15;3.30;;;6.60;99.90;;;;;;5029562;28;20041;-61
2022/02/27 10:06:18;;;;;;;9.48;3.72;;;6.70;99.90;;;;;;5030011;28;20029;-60
2022/02/27 10:09:23;;;;;;;14.50;3.65;;;6.60;99.90;;;;;;5030113;28;20049;-60
2022/02/27 10:12:28;;;;;;;16.85;4.22;;;6.60;99.70;;;;;;5029603;28;20041;-60
2022/02/27 10:15:36;;;;;;;12.57;4.65;;;6.50;99.90;;;;;;5029758;28;20591;-61
2022/02/27 10:18:50;;;;;;;7.78;4.28;;;6.50;99.10;;;;;;5029689;28;20052;-61
2022/02/27 10:21:54;;;;;;;8.60;4.18;;;6.50;98.60;;;;;;5029637;28;20041;-60
2022/02/27 10:25:00;;;;;;;14.38;4.18;;;6.50;99.00;;;;;;5029730;28;20029;-60
2022/02/27 10:28:05;;;;;;;11.38;4.35;;;6.60;99.20;;;;;;5029268;28;20057;-60
2022/02/27 10:31:09;;;;;;;7.25;4.10;;;6.60;98.50;;;;;;5029316;28;20052;-61
2022/02/27 10:34:25;;;;;;;12.27;3.92;;;6.80;99.30;;;;;;5030770;28;20042;-61
2022/02/27 10:37:29;;;;;;;9.52;4.30;;;7.00;98.50;;;;;;5032502;28;20396;-60
2022/02/27 10:40:53;;;;;;;9.98;3.53;;;7.40;98.10;;;;;;5031747;28;20037;-60
2022/02/27 10:43:58;;;;;;;8.88;3.80;;;7.80;97.60;;;;;;5032963;28;20037;-60
2022/02/27 10:47:10;;;;;;;16.00;4.40;;;8.40;96.90;;;;;;5033322;28;20038;-60
2022/02/27 10:50:19;;;;;;;13.32;6.18;;;7.70;97.00;;;;;;5032412;28;20041;-60
2022/02/27 10:53:33;;;;;;;11.38;4.88;;;7.90;97.20;;;;;;5033001;28;20392;-60
2022/02/27 10:56:38;;;;;;;9.30;4.10;;;8.00;96.70;;;;;;5032879;28;20040;-60
2022/02/27 10:59:43;;;;;;;11.32;4.68;;;8.00;96.70;;;;;;5032764;28;20045;-61
2022/02/27 11:02:56;;;;;;;13.65;4.28;;;8.10;96.60;;;;;;5032420;28;20048;-61
2022/02/27 11:06:00;;;;;;;7.72;4.15;;;8.00;96.80;;;;;;5032829;28;20040;-60
2022/02/27 11:09:04;;;;;;;12.48;6.53;;;8.10;96.20;;;;;;5032654;28;20369;-61
2022/02/27 11:12:09;;;;;;;10.43;4.93;;;8.20;96.80;;;;;;5032539;28;20048;-60
2022/02/27 11:15:16;;;;;;;8.57;3.78;;;8.20;96.20;;;;;;5032652;28;20068;-60
2022/02/27 11:18:20;;;;;;;8.80;4.22;;;7.90;95.90;;;;;;5032561;28;20381;-61
2022/02/27 11:21:25;;;;;;;13.10;4.28;;;7.80;96.90;;;;;;5031953;28;20037;-61
2022/02/27 11:24:30;;;;;;;12.73;4.28;;;7.80;97.00;;;;;;5032859;28;20388;-60
2022/02/27 11:27:37;;;;;;;9.75;4.68;;;7.60;96.60;;;;;;5032706;28;20049;-60
2022/02/27 11:30:46;;;;;;;10.00;3.95;;;7.60;97.10;;;;;;5031736;28;20484;-61
2022/02/27 11:33:50;;;;;;;8.43;4.25;;;7.70;96.50;;;;;;5032264;28;20048;-60
2022/02/27 11:36:55;;;;;;;11.00;4.10;;;7.60;96.20;;;;;;5032184;28;20049;-60
2022/02/27 11:40:29;;;;;;;12.98;4.10;;;7.80;96.30;;;;;;5031768;28;20040;-60
2022/02/27 11:43:39;;;;;;;7.82;4.50;;;7.90;96.10;;;;;;5031915;28;20036;-60
2022/02/27 11:46:46;;;;;;;10.63;4.18;;;8.00;95.80;;;;;;5031322;28;20476;-59
2022/02/27 11:49:50;;;;;;;8.30;3.95;;;8.00;95.20;;;;;;5032533;28;20056;-60
2022/02/27 11:52:54;;;;;;;11.20;4.07;;;8.40;95.40;;;;;;5031609;28;20037;-61
2022/02/27 11:56:04;;;;;;;13.23;4.63;;;8.70;95.70;;;;;;5031906;28;20056;-60
2022/02/27 11:59:10;;;;;;;9.93;4.65;;;9.10;95.00;;;;;;5031329;28;20040;-61
2022/02/27 12:02:47;;;;;;;8.82;4.25;;;9.10;94.30;;;;;;5031038;28;20041;-61
2022/02/27 12:05:55;;;;;;;7.30;4.22;;;9.40;94.50;;;;;;5032227;28;20045;-60
2022/02/27 12:09:11;;;;;;;10.77;3.97;;;9.40;94.50;;;;;;5031840;28;20045;-60
2022/02/27 12:12:37;;;;;;;10.70;4.30;;;9.20;94.80;;;;;;5031090;28;20044;-61
2022/02/27 12:15:42;;;;;;;12.85;5.30;;;9.00;94.70;;;;;;5030189;28;20056;-61
2022/02/27 12:18:50;;;;;;;13.18;3.72;;;9.10;95.50;;;;;;5031630;28;20056;-61
2022/02/27 12:21:57;;;;;;;8.77;3.58;;;8.80;95.40;;;;;;5030647;28;20531;-61
2022/02/27 12:25:04;;;;;;;7.40;3.90;;;8.70;95.60;;;;;;5031897;28;20050;-60
2022/02/27 12:28:08;;;;;;;6.47;3.40;;;8.60;95.90;;;;;;5031299;28;20041;-60
2022/02/27 12:31:16;;;;;;;6.43;3.15;;;8.60;95.90;;;;;;5031086;28;20045;-61
2022/02/27 12:34:21;;;;;;;13.48;4.18;;;8.40;95.90;;;;;;5031430;28;20045;-61
2022/02/27 12:37:26;;;;;;;8.27;4.55;;;8.50;95.80;;;;;;5031259;28;20064;-60
2022/02/27 12:40:32;;;;;;;11.55;5.15;;;8.50;96.20;;;;;;5030812;28;20034;-60
2022/02/27 12:43:41;;;;;;;8.60;3.78;;;8.50;95.80;;;;;;5031472;28;20388;-60
2022/02/27 12:46:45;;;;;;;13.25;4.00;;;8.60;95.90;;;;;;5031243;28;20021;-60
2022/02/27 12:53:38;;;;;;;10.45;4.15;;;8.80;96.90;;;;;;5010089;28;20042;-60
2022/02/27 12:56:52;;;;;;;11.13;4.72;;;9.00;97.00;;;;;;5030720;28;20048;-61
2022/02/27 12:59:57;;;;;;;9.63;3.90;;;8.90;96.50;;;;;;5030188;28;20040;-60
2022/02/27 13:03:12;;;;;;;9.02;3.67;;;8.80;96.20;;;;;;5030722;28;20034;-60
2022/02/27 13:06:16;;;;;;;12.40;5.70;;;8.70;96.80;;;;;;5030596;28;20033;-61
2022/02/27 13:09:26;;;;;;;9.63;4.47;;;9.20;96.50;;;;;;5030943;28;20480;-60
2022/02/27 13:12:31;;;;;;;11.32;4.85;;;8.70;95.90;;;;;;5029879;28;20041;-60
2022/02/27 13:15:35;;;;;;;11.20;4.43;;;8.70;95.80;;;;;;5029800;28;20056;-60
2022/02/27 13:18:45;;;;;;;14.13;4.93;;;8.50;95.10;;;;;;5030361;28;20052;-61
2022/02/27 13:21:49;;;;;;;8.43;3.85;;;8.60;95.60;;;;;;5029720;28;20037;-61
2022/02/27 13:24:57;;;;;;;12.77;5.05;;;8.50;96.10;;;;;;5029141;28;20041;-61
2022/02/27 13:28:01;;;;;;;9.45;4.82;;;8.80;94.50;;;;;;5041186;28;20047;-61
2022/02/27 13:31:16;;;;;;;10.90;4.28;;;8.60;94.70;;;;;;5029610;28;20038;-61
2022/02/27 13:34:20;;;;;;;16.73;4.15;;;8.70;94.50;;;;;;5030659;28;20052;-60
2022/02/27 13:37:28;;;;;;;10.02;5.03;;;8.60;95.00;;;;;;5030522;28;20048;-60
2022/02/27 13:40:36;;;;;;;12.48;4.43;;;8.70;94.50;;;;;;5029713;28;20530;-60
2022/02/27 13:43:41;;;;;;;9.52;4.15;;;8.80;94.90;;;;;;5029996;28;20057;-60
2022/02/27 13:46:51;;;;;;;11.38;4.80;;;8.90;95.20;;;;;;5030091;28;20042;-60
2022/02/27 13:49:56;;;;;;;10.30;4.43;;;9.00;95.10;;;;;;5029939;28;20045;-60
2022/02/27 13:53:05;;;;;;;9.13;4.25;;;9.00;94.80;;;;;;5029897;28;20037;-61
2022/02/27 13:56:13;;;;;;;9.98;4.55;;;8.90;94.90;;;;;;5029530;28;20042;-60
2022/02/27 13:59:17;;;;;;;11.60;4.03;;;9.00;95.10;;;;;;5028933;28;20041;-59
2022/02/27 14:02:36;;;;;;;9.30;4.47;;;9.00;95.00;;;;;;5029552;28;20048;-60
2022/02/27 14:06:16;;;;;;;10.32;4.28;;;8.80;94.80;;;;;;5029254;28;20480;-61
2022/02/27 14:09:21;;;;;;;19.52;7.38;;;9.00;94.90;;;;;;5025812;28;20044;-60
2022/02/27 14:12:26;;;;;;;20.67;9.20;;;9.00;94.80;;;;;;5032942;28;20044;-60
2022/02/27 14:15:37;;;;;;;14.65;5.75;;;8.80;94.70;;;;;;5034031;28;20044;-60
2022/02/27 14:18:41;;;;;;;12.63;6.75;;;8.50;94.70;;;;;;5033759;28;20045;-62
2022/02/27 14:21:45;;;;;;;15.80;5.47;;;8.40;94.80;;;;;;5033096;28;20339;-60
2022/02/27 14:24:55;;;;;;;16.17;6.10;;;8.30;94.90;;;;;;5033178;28;20052;-61
2022/02/27 14:28:10;;;;;;;15.07;6.88;;;8.40;94.80;;;;;;5033933;28;20048;-60
2022/02/27 14:31:13;;;;;;;10.30;5.28;;;8.30;95.40;;;;;;5033556;28;20048;-61
2022/02/27 14:34:21;;;;;;;14.43;5.38;;;8.30;94.80;;;;;;5033038;28;20403;-60
2022/02/27 14:37:26;;;;;;;17.67;7.13;;;8.20;95.10;;;;;;5033653;28;20057;-60
2022/02/27 14:40:30;;;;;;;14.85;6.15;;;8.30;95.00;;;;;;5033479;28;20522;-60
2022/02/27 14:43:35;;;;;;;15.50;6.97;;;8.30;94.60;;;;;;5044041;28;20045;-60
2022/02/27 14:46:40;;;;;;;12.45;5.47;;;8.40;94.40;;;;;;5033532;28;20044;-60
2022/02/27 14:49:44;;;;;;;10.30;5.05;;;8.50;94.50;;;;;;5032643;28;20053;-60
2022/02/27 14:52:48;;;;;;;13.23;5.45;;;8.60;94.20;;;;;;5032523;28;20044;-60
2022/02/27 14:55:53;;;;;;;12.32;5.50;;;8.50;93.60;;;;;;5033138;28;20044;-61
2022/02/27 14:58:57;;;;;;;10.00;5.05;;;8.50;93.80;;;;;;5033119;28;20048;-60
2022/02/27 15:02:02;;;;;;;21.67;10.35;;;8.50;93.70;;;;;;5032222;28;20052;-60
2022/02/27 15:05:07;;;;;;;11.93;4.95;;;8.50;94.10;;;;;;5033014;28;20048;-60
2022/02/27 15:08:11;;;;;;;12.82;5.63;;;8.70;94.00;;;;;;5031839;28;20057;-61
2022/02/27 15:11:15;;;;;;;9.43;5.10;;;8.40;94.10;;;;;;5032217;28;20053;-60
2022/02/27 15:14:19;;;;;;;15.98;8.15;;;8.40;94.20;;;;;;5032609;28;20037;-60
2022/02/27 15:17:25;;;;;;;9.98;5.82;;;8.40;94.40;;;;;;5032865;28;20056;-61
2022/02/27 15:20:30;;;;;;;11.38;5.40;;;8.40;94.20;;;;;;5032260;28;20029;-60
2022/02/27 15:23:36;;;;;;;11.73;4.70;;;8.40;94.10;;;;;;5032667;28;20491;-61
2022/02/27 15:26:41;;;;;;;11.27;5.93;;;8.30;94.00;;;;;;5032739;28;20048;-60
2022/02/27 15:29:44;;;;;;;9.85;6.05;;;8.40;94.10;;;;;;5032907;28;20487;-60
2022/02/27 15:32:49;;;;;;;10.88;5.13;;;8.50;94.10;;;;;;5031296;28;20396;-59
2022/02/27 15:35:55;;;;;;;9.35;4.90;;;8.50;94.20;;;;;;5032695;28;20052;-60
2022/02/27 15:38:59;;;;;;;14.15;6.57;;;8.60;93.60;;;;;;5032228;28;20041;-60
2022/02/27 15:42:03;;;;;;;11.38;4.68;;;8.60;93.50;;;;;;5031574;28;20048;-60
2022/02/27 15:45:09;;;;;;;10.32;5.30;;;8.70;93.60;;;;;;5032130;28;20488;-60
2022/02/27 15:48:13;;;;;;;18.35;8.40;;;8.70;93.70;;;;;;5032725;28;20040;-60
2022/02/27 15:51:19;;;;;;;11.23;6.03;;;8.60;93.80;;;;;;5031775;28;20044;-60
2022/02/27 15:54:24;;;;;;;8.57;4.80;;;8.50;94.00;;;;;;5031953;28;20052;-60
2022/02/27 15:57:28;;;;;;;10.23;5.40;;;8.40;94.00;;;;;;5031436;28;20042;-60
2022/02/27 16:00:32;;;;;;;19.15;12.27;;;8.40;94.40;;;;;;5031624;28;20044;-60
2022/02/27 16:03:37;;;;;;;18.60;10.40;;;8.50;94.20;;;;;;5031892;28;20049;-60
2022/02/27 16:06:41;;;;;;;11.23;4.95;;;8.40;94.50;;;;;;5032261;28;20053;-60
2022/02/27 16:09:46;;;;;;;16.58;6.93;;;8.30;94.20;;;;;;5031916;28;20294;-60
2022/02/27 16:12:53;;;;;;;15.88;8.27;;;8.20;94.40;;;;;;5031386;28;20262;-61
2022/02/27 16:15:57;;;;;;;19.67;12.25;;;8.30;94.40;;;;;;5031397;28;20053;-60
2022/02/27 16:19:01;;;;;;;13.32;6.28;;;8.40;94.70;;;;;;5031228;28;20045;-60